Latest Coastal Weather Observations for Hopetoun North

IDW60701

Issued at 11:05 pm WST Wednesday 26 November 2014 (issued every 10 minutes, with the page automatically refreshed every 10 minutes)

About coastal observations | Map of coastal stations | Coastal observations for WA | Marine services | Other Formats
Station Details ID: 009961 Name: HOPETOUN NORTH Lat: -33.93 Lon: 120.13 Height: 26.0 m
Data from the previous 72 hours. | See also: Recent months at Hopetoun North
Date/Time
WST
Temp

°C
Wind Pressure Rain
since 9am
mm
Weather Cloud Vis
km
Sea
Height
m
Swell
Dir
 
Speed
knots
Gust
knots
hPa Trend Height
m
Period
s
Dir
26/11:00pm 18.9 ENE 9 14 1014.0 - 0.0 - - - - - - -
26/10:30pm 19.1 ENE 9 13 1014.4 - 0.0 - - - - - - -
26/10:00pm 19.0 ENE 9 15 1014.7 - 0.0 - - - - - - -
26/09:30pm 19.0 ENE 11 16 1015.1 - 0.0 - - - - - - -
26/09:00pm 18.9 E 11 17 1014.9 - 0.0 - - - - - - -
26/08:30pm 18.8 E 13 20 1014.7 - 0.0 - - - - - - -
26/08:00pm 18.6 E 14 20 1014.4 - 0.0 - - - - - - -
26/07:30pm 18.5 E 16 23 1014.4 - 0.0 - - - - - - -
26/07:03pm 18.5 E 17 27 1014.3 - 0.0 - - - - - - -
26/07:00pm 18.6 E 18 27 1014.2 - 0.0 - - - - - - -
26/06:47pm 18.6 E 17 27 1014.2 - 0.0 - - - - - - -
26/06:30pm 18.8 E 20 28 1014.3 - 0.0 - - - - - - -
26/06:12pm 18.9 E 16 27 1014.2 - 0.0 - - - - - - -
26/06:00pm 19.1 E 17 25 1014.2 - 0.0 - - - - - - -
26/05:33pm 19.4 E 19 30 1014.1 - 0.0 - - - - - - -
26/05:30pm 19.5 E 19 27 1014.0 - 0.0 - - - - - - -
26/05:15pm 19.4 E 20 30 1013.9 - 0.0 - - - - - - -
26/05:00pm 19.3 E 20 29 1013.8 - 0.0 - - - - - - -
26/04:30pm 19.9 ESE 20 30 1014.0 - 0.0 - - - - - - -
26/04:19pm 20.1 ESE 20 30 1014.1 - 0.0 - - - - - - -
26/04:00pm 21.0 E 20 30 1014.4 - 0.0 - - - - - - -
26/03:40pm 20.9 ESE 22 32 1014.7 - 0.0 - - - - - - -
26/03:30pm 21.2 ESE 20 29 1014.7 - 0.0 - - - - - - -
26/03:01pm 21.2 ESE 20 30 1015.0 - 0.0 - - - - - - -
26/03:00pm 20.9 ESE 21 30 1015.0 - 0.0 - - - - - - -
26/02:31pm 21.4 ESE 20 32 1015.3 - 0.0 - - - - - - -
26/02:30pm 21.7 ESE 19 28 1015.2 - 0.0 - - - - - - -
26/02:00pm 21.9 ESE 20 30 1015.4 - 0.0 - - - - - - -
26/01:38pm 21.7 ESE 20 30 1015.6 - 0.0 - - - - - - -
26/01:30pm 21.7 ESE 21 29 1015.7 - 0.0 - - - - - - -
26/01:00pm 22.1 ESE 20 27 1016.3 - 0.0 - - - - - - -
26/12:49pm 22.5 ESE 18 28 1016.5 - 0.0 - - - - - - -
26/12:30pm 21.6 ESE 18 25 1016.7 - 0.0 - - - - - - -
26/12:00pm 21.2 ESE 18 27 1017.5 - 0.0 - - - - - - -
26/11:30am 20.8 ESE 17 25 1018.0 - 0.0 - - - - - - -
26/11:00am 21.3 ESE 17 24 1018.4 - 0.0 - - - - - - -
26/10:30am 20.1 ESE 16 25 1018.9 - 0.0 - - - - - - -
26/10:00am 21.5 ESE 14 22 1019.1 - 0.0 - - - - - - -
26/09:30am 21.9 E 10 16 1019.4 - 0.0 - - - - - - -
26/09:00am 22.2 ENE 11 18 1019.7 - 0.0 - - - - - - -
26/08:30am 20.6 ENE 12 18 1020.0 - 0.0 - - - - - - -
26/08:00am 19.4 ENE 11 15 1020.1 - 0.0 - - - - - - -
26/07:30am 17.8 NE 12 15 1020.4 - 0.0 - - - - - - -
26/07:00am 16.9 ENE 11 16 1020.2 - 0.0 - - - - - - -
26/06:30am 15.0 ENE 11 14 1020.2 - 0.0 - - - - - - -
26/06:00am 13.9 ENE 9 14 1020.6 - 0.0 - - - - - - -
26/05:30am 12.6 NE 5 7 1020.9 - 0.0 - - - - - - -
26/05:00am 12.4 ENE 7 10 1020.8 - 0.0 - - - - - - -
26/04:30am 13.0 ENE 8 13 1020.3 - 0.0 - - - - - - -
26/04:00am 13.6 ENE 9 12 1020.0 - 0.0 - - - - - - -
26/03:30am 13.8 E 9 13 1019.6 - 0.0 - - - - - - -
26/03:00am 13.9 E 9 12 1019.7 - 0.0 - - - - - - -
26/02:30am 14.3 E 8 14 1019.8 - 0.0 - - - - - - -
26/02:00am 14.3 E 9 13 1019.9 - 0.0 - - - - - - -
26/01:30am 14.4 E 9 14 1020.2 - 0.0 - - - - - - -
26/01:00am 14.7 ENE 11 17 1020.5 - 0.0 - - - - - - -
26/12:30am 14.9 ENE 10 18 1020.7 - 0.0 - - - - - - -
26/12:00am 15.7 ENE 10 14 1020.9 - 0.0 - - - - - - -
 
Date/Time
WST
Temp

°C
Wind Pressure Rain
since 9am
mm
Weather Cloud Vis
km
Sea
Height
m
Swell
Dir
 
Speed
knots
Gust
knots
hPa Trend Height
m
Period
s
Dir
25/11:30pm 16.0 ENE 7 10 1021.1 - 0.0 - - - - - - -
25/11:00pm 16.2 ENE 6 9 1021.2 - 0.0 - - - - - - -
25/10:30pm 16.3 E 9 14 1021.5 - 0.0 - - - - - - -
25/10:00pm 16.5 E 10 15 1021.3 - 0.0 - - - - - - -
25/09:30pm 16.6 E 10 15 1021.3 - 0.0 - - - - - - -
25/09:00pm 16.9 E 10 18 1021.3 - 0.0 - - - - - - -
25/08:30pm 17.0 E 12 20 1021.3 - 0.0 - - - - - - -
25/08:00pm 16.8 E 13 18 1021.3 - 0.0 - - - - - - -
25/07:30pm 16.8 E 11 16 1021.3 - 0.0 - - - - - - -
25/07:00pm 16.9 ESE 12 16 1021.3 - 0.0 - - - - - - -
25/06:30pm 17.3 ESE 12 19 1021.4 - 0.0 - - - - - - -
25/06:00pm 18.0 ESE 13 20 1021.4 - 0.0 - - - - - - -
25/05:30pm 18.3 ESE 14 20 1021.0 - 0.0 - - - - - - -
25/05:00pm 18.4 ESE 12 17 1021.0 - 0.0 - - - - - - -
25/04:30pm 19.0 ESE 14 20 1020.8 - 0.0 - - - - - - -
25/04:00pm 19.1 ESE 14 20 1020.8 - 0.0 - - - - - - -
25/03:30pm 19.4 ESE 15 21 1020.8 - 0.0 - - - - - - -
25/03:00pm 19.7 SE 15 21 1020.8 - 0.0 - - - - - - -
25/02:30pm 19.6 SE 15 22 1021.0 - 0.0 - - - - - - -
25/02:00pm 20.0 SE 16 21 1021.0 - 0.0 - - - - - - -
25/01:30pm 20.3 SE 16 22 1021.3 - 0.0 - - - - - - -
25/01:00pm 20.2 SE 15 21 1021.4 - 0.0 - - - - - - -
25/12:30pm 20.6 ESE 16 23 1021.7 - 0.0 - - - - - - -
25/12:00pm 20.3 SE 13 21 1021.8 - 0.0 - - - - - - -
25/11:30am 20.2 SE 15 20 1022.1 - 0.0 - - - - - - -
25/11:00am 20.2 SE 13 18 1022.2 - 0.0 - - - - - - -
25/10:30am 19.8 SE 12 17 1022.6 - 0.0 - - - - - - -
25/10:00am 19.9 SE 11 15 1022.9 - 0.0 - - - - - - -
25/09:30am 19.9 ENE 10 16 1023.1 - 0.0 - - - - - - -
25/09:00am 19.5 ENE 9 16 1023.3 - 0.0 - - - - - - -
25/08:30am 18.7 NE 11 16 1023.5 - 0.0 - - - - - - -
25/08:00am 17.9 ENE 11 15 1023.7 - 0.0 - - - - - - -
25/07:30am 16.5 NE 9 13 1023.7 - 0.0 - - - - - - -
25/07:00am 14.5 NE 9 14 1023.9 - 0.0 - - - - - - -
25/06:30am 13.0 NE 5 7 1024.2 - 0.0 - - - - - - -
25/06:00am 10.7 NNE 4 4 1023.7 - 0.0 - - - - - - -
25/05:30am 9.2 NNE 4 6 1023.5 - 0.0 - - - - - - -
25/05:00am 9.0 NNE 4 6 1023.1 - 0.0 - - - - - - -
25/04:30am 9.1 NNE 5 6 1022.9 - 0.0 - - - - - - -
25/04:00am 9.0 NNE 5 8 1022.7 - 0.0 - - - - - - -
25/03:30am 9.4 NNE 5 5 1022.7 - 0.0 - - - - - - -
25/03:00am 9.7 NNE 4 6 1022.7 - 0.0 - - - - - - -
25/02:30am 9.5 NNE 5 5 1022.6 - 0.0 - - - - - - -
25/02:00am 9.8 NNE 4 5 1022.7 - 0.0 - - - - - - -
25/01:30am 10.0 NNE 4 4 1022.9 - 0.0 - - - - - - -
25/01:00am 10.0 NNE 4 4 1023.3 - 0.0 - - - - - - -
25/12:30am 10.2 NNE 4 4 1023.3 - 0.0 - - - - - - -
25/12:00am 10.7 NE 3 4 1023.4 - 0.0 - - - - - - -
 
Date/Time
WST
Temp

°C
Wind Pressure Rain
since 9am
mm
Weather Cloud Vis
km
Sea
Height
m
Swell
Dir
 
Speed
knots
Gust
knots
hPa Trend Height
m
Period
s
Dir
24/11:30pm 11.3 NE 3 4 1023.6 - 0.0 - - - - - - -
24/11:00pm 11.6 NE 3 4 1023.8 - 0.0 - - - - - - -
24/10:30pm 12.4 NE 3 5 1024.1 - 0.0 - - - - - - -
24/10:00pm 14.0 ESE 5 8 1024.2 - 0.0 - - - - - - -
24/09:30pm 14.2 ESE 6 8 1024.2 - 0.0 - - - - - - -
24/09:00pm 14.5 SE 7 9 1024.1 - 0.0 - - - - - - -
24/08:30pm 14.1 SE 5 9 1024.0 - 0.0 - - - - - - -
24/08:00pm 14.3 SE 6 11 1023.8 - 0.0 - - - - - - -
24/07:30pm 14.6 ESE 6 9 1023.6 - 0.0 - - - - - - -
24/07:00pm 14.6 SE 6 8 1023.5 - 0.0 - - - - - - -
24/06:30pm 15.3 SE 7 11 1023.3 - 0.0 - - - - - - -
24/06:00pm 16.1 SE 9 12 1023.0 - 0.0 - - - - - - -
24/05:30pm 16.7 SE 9 14 1022.7 - 0.0 - - - - - - -
24/05:00pm 16.9 SSE 10 15 1022.5 - 0.0 - - - - - - -
24/04:30pm 17.7 SE 10 14 1022.3 - 0.0 - - - - - - -
24/04:00pm 17.9 SE 10 15 1022.3 - 0.0 - - - - - - -
24/03:30pm 17.8 SE 10 15 1022.3 - 0.0 - - - - - - -
24/03:00pm 18.4 SSE 10 15 1022.3 - 0.0 - - - - - - -
24/02:30pm 18.2 SSE 11 14 1022.4 - 0.0 - - - - - - -
24/02:00pm 18.7 SSE 11 16 1022.3 - 0.0 - - - - - - -
24/01:30pm 18.2 SSE 10 15 1022.5 - 0.0 - - - - - - -
24/01:00pm 18.6 SSE 10 15 1022.6 - 0.0 - - - - - - -
24/12:30pm 18.5 SE 11 12 1022.8 - 0.0 - - - - - - -
24/12:00pm 18.9 SSE 10 14 1023.0 - 0.0 - - - - - - -
24/11:30am 17.6 S 10 14 1023.3 - 0.0 - - - - - - -
24/11:00am 17.9 SSE 11 14 1023.4 - 0.0 - - - - - - -
24/10:30am 18.2 S 10 14 1023.6 - 0.0 - - - - - - -
24/10:00am 17.1 S 7 11 1023.6 - 0.0 - - - - - - -
24/09:30am 17.2 SSW 7 10 1023.5 - 0.0 - - - - - - -
24/09:00am 17.0 S 7 11 1023.6 - 0.2 - - - - - - -
24/08:30am 16.2 S 6 9 1023.5 - 0.2 - - - - - - -
24/08:00am 15.8 S 7 10 1023.4 - 0.2 - - - - - - -
24/07:30am 16.3 S 8 10 1023.1 - 0.2 - - - - - - -
24/07:00am 16.1 SSW 7 9 1022.7 - 0.2 - - - - - - -
24/06:30am 15.5 S 7 9 1022.4 - 0.2 - - - - - - -
24/06:00am 15.3 SSW 7 10 1022.1 - 0.2 - - - - - - -
24/05:30am 14.9 S 8 11 1022.0 - 0.2 - - - - - - -
24/05:00am 14.6 SSW 7 10 1021.6 - 0.2 - - - - - - -
24/04:30am 14.5 S 8 12 1021.2 - 0.2 - - - - - - -
24/04:00am 14.3 SSW 8 12 1020.9 - 0.2 - - - - - - -
24/03:30am 13.9 SSW 8 12 1020.7 - 0.2 - - - - - - -
24/03:00am 14.0 SSW 8 12 1020.7 - 0.2 - - - - - - -
24/02:30am 14.5 SSW 11 15 1020.5 - 0.2 - - - - - - -
24/02:00am 14.7 SSW 8 13 1020.4 - 0.2 - - - - - - -
24/01:30am 14.5 SSW 11 15 1020.4 - 0.2 - - - - - - -
24/01:00am 14.9 SSW 12 16 1020.5 - 0.2 - - - - - - -
24/12:30am 15.0 SSW 11 15 1020.5 - 0.2 - - - - - - -
24/12:00am 15.2 SSW 10 14 1020.5 - 0.2 - - - - - - -
 
Date/Time
WST
Temp

°C
Wind Pressure Rain
since 9am
mm
Weather Cloud Vis
km
Sea
Height
m
Swell
Dir
 
Speed
knots
Gust
knots
hPa Trend Height
m
Period
s
Dir
23/11:30pm 14.9 SSW 11 15 1020.5 - 0.2 - - - - - - -

Other Formats:

Comma delimited format used in spreadsheet applications
http://www.bom.gov.au/fwo/IDW60701/IDW60701.95635.axf

JavaScript Object Notation format (JSON) in row-major order
http://www.bom.gov.au/fwo/IDW60701/IDW60701.95635.json